createdAt,value
2017-08-25T00:00:11.414Z,19.5
2017-08-25T00:01:14.213Z,19.5
2017-08-25T00:02:17.013Z,19.5
2017-08-25T00:03:19.505Z,19.4
2017-08-25T00:04:21.956Z,19.4
2017-08-25T00:05:24.765Z,19.4
2017-08-25T00:06:27.242Z,19.4
2017-08-25T00:07:30.377Z,19.4
2017-08-25T00:08:32.834Z,19.4
2017-08-25T00:09:35.296Z,19.4
2017-08-25T00:10:37.756Z,19.4
2017-08-25T00:11:40.216Z,19.3
2017-08-25T00:12:42.674Z,19.3
2017-08-25T00:13:45.127Z,19.3
2017-08-25T00:14:47.928Z,19.3
2017-08-25T00:15:50.387Z,19.3
2017-08-25T00:16:52.933Z,19.2
2017-08-25T00:17:55.403Z,19.2
2017-08-25T00:18:57.863Z,19.2
2017-08-25T00:20:00.319Z,19.2
2017-08-25T00:21:03.132Z,19.2
2017-08-25T00:22:05.588Z,19.2
2017-08-25T00:23:08.072Z,19.2
2017-08-25T00:24:10.525Z,19.2
2017-08-25T00:25:13.001Z,19.2
2017-08-25T00:26:15.460Z,19.1
2017-08-25T00:27:17.921Z,19.1
2017-08-25T00:28:20.379Z,19.1
2017-08-25T00:29:22.851Z,19.1
2017-08-25T00:30:25.294Z,19.1
2017-08-25T00:31:27.749Z,19.1
2017-08-25T00:32:30.216Z,19.1
2017-08-25T00:33:33.028Z,19
2017-08-25T00:34:35.824Z,19.1
2017-08-25T00:35:38.625Z,19
2017-08-25T00:36:41.071Z,19
2017-08-25T00:37:43.535Z,19.1
2017-08-25T00:38:45.991Z,19
2017-08-25T00:39:48.434Z,19
2017-08-25T00:40:50.912Z,19
2017-08-25T00:41:53.367Z,19
2017-08-25T00:42:56.170Z,19
2017-08-25T00:43:58.623Z,19
2017-08-25T00:45:01.071Z,18.9
2017-08-25T00:46:03.522Z,19
2017-08-25T00:47:05.986Z,19
2017-08-25T00:48:08.431Z,19
2017-08-25T00:49:10.903Z,18.9
2017-08-25T00:50:13.352Z,18.9
2017-08-25T00:51:15.809Z,18.9
2017-08-25T00:52:18.298Z,18.9
2017-08-25T00:53:20.746Z,18.9
2017-08-25T00:54:23.203Z,18.9
2017-08-25T00:55:25.662Z,18.9
2017-08-25T00:56:28.138Z,18.9
2017-08-25T00:57:30.594Z,18.9
2017-08-25T00:58:33.383Z,18.8
2017-08-25T00:59:35.839Z,18.8
2017-08-25T01:00:38.630Z,18.8
2017-08-25T01:01:41.769Z,18.8
2017-08-25T01:02:44.575Z,18.8
2017-08-25T01:03:47.035Z,18.8
2017-08-25T01:04:49.483Z,18.8
2017-08-25T01:05:51.946Z,18.8
2017-08-25T01:06:54.406Z,18.8
2017-08-25T01:07:57.225Z,18.8
2017-08-25T01:08:59.682Z,18.8
2017-08-25T01:10:02.129Z,18.8
2017-08-25T01:11:04.584Z,18.8
2017-08-25T01:12:07.382Z,18.8
2017-08-25T01:13:09.819Z,18.8
2017-08-25T01:14:12.275Z,18.7
2017-08-25T01:15:14.738Z,18.8
2017-08-25T01:16:17.191Z,18.7
2017-08-25T01:17:20.325Z,18.7
2017-08-25T01:18:22.781Z,18.7
2017-08-25T01:19:25.232Z,18.7
2017-08-25T01:20:27.694Z,18.7
2017-08-25T01:21:30.148Z,18.7
2017-08-25T01:22:32.594Z,18.7
2017-08-25T01:23:35.044Z,18.6
2017-08-25T01:24:37.851Z,18.6
2017-08-25T01:25:40.307Z,18.6
2017-08-25T01:26:42.758Z,18.6
2017-08-25T01:27:45.223Z,18.6
2017-08-25T01:28:47.677Z,18.5
2017-08-25T01:29:50.122Z,18.5
2017-08-25T01:30:52.577Z,18.5
2017-08-25T01:31:55.039Z,18.5
2017-08-25T01:32:57.487Z,18.5
2017-08-25T01:33:59.933Z,18.5
2017-08-25T01:35:02.379Z,18.4
2017-08-25T01:36:04.839Z,18.4
2017-08-25T01:37:07.309Z,18.4
2017-08-25T01:38:09.757Z,18.4
2017-08-25T01:39:12.212Z,18.4
2017-08-25T01:40:14.666Z,18.4
2017-08-25T01:41:17.112Z,18.4
2017-08-25T01:42:19.563Z,18.4
2017-08-25T01:43:22.020Z,18.4
2017-08-25T01:44:24.475Z,18.3
2017-08-25T01:45:26.924Z,18.3
2017-08-25T01:46:29.740Z,18.3
2017-08-25T01:47:32.186Z,18.3
2017-08-25T01:48:34.992Z,18.3
2017-08-25T01:49:37.444Z,18.3
2017-08-25T01:50:39.895Z,18.3
2017-08-25T01:51:42.699Z,18.3
2017-08-25T01:52:45.156Z,18.3
2017-08-25T01:53:47.604Z,18.3
2017-08-25T01:54:50.052Z,18.3
2017-08-25T01:55:52.512Z,18.3
2017-08-25T01:56:54.966Z,18.3
2017-08-25T01:57:57.421Z,18.3
2017-08-25T01:58:59.875Z,18.3
2017-08-25T02:00:02.336Z,18.3
2017-08-25T02:01:04.787Z,18.3
2017-08-25T02:02:07.247Z,18.3
2017-08-25T02:03:09.692Z,18.3
2017-08-25T02:04:12.160Z,18.2
2017-08-25T02:05:14.602Z,18.2
2017-08-25T02:06:17.051Z,18.2
2017-08-25T02:07:19.509Z,18.2
2017-08-25T02:08:21.964Z,18.2
2017-08-25T02:09:24.751Z,18.2
2017-08-25T02:10:27.209Z,18.2
2017-08-25T02:11:29.663Z,18.2
2017-08-25T02:12:32.476Z,18.3
2017-08-25T02:13:34.933Z,18.2
2017-08-25T02:14:37.726Z,18.3
2017-08-25T02:15:40.180Z,18.3
2017-08-25T02:16:42.985Z,18.3
2017-08-25T02:17:45.441Z,18.3
2017-08-25T02:18:47.897Z,18.3
2017-08-25T02:19:50.361Z,18.3
2017-08-25T02:20:52.808Z,18.3
2017-08-25T02:21:55.264Z,18.3
2017-08-25T02:22:57.718Z,18.3
2017-08-25T02:24:00.177Z,18.3
2017-08-25T02:25:02.623Z,18.3
2017-08-25T02:26:05.087Z,18.3
2017-08-25T02:27:07.539Z,18.2
2017-08-25T02:28:09.998Z,18.2
2017-08-25T02:29:12.442Z,18.3
2017-08-25T02:30:14.897Z,18.2
2017-08-25T02:31:17.347Z,18.3
2017-08-25T02:32:19.807Z,18.3
2017-08-25T02:33:22.260Z,18.2
2017-08-25T02:34:24.713Z,18.2
2017-08-25T02:35:27.712Z,18.2
2017-08-25T02:36:30.517Z,18.3
2017-08-25T02:37:33.329Z,18.3
2017-08-25T02:38:35.779Z,18.2
2017-08-25T02:39:38.228Z,18.2
2017-08-25T02:40:41.029Z,18.2
2017-08-25T02:41:43.481Z,18.2
2017-08-25T02:42:45.933Z,18.2
2017-08-25T02:43:48.376Z,18.2
2017-08-25T02:44:50.831Z,18.2
2017-08-25T02:45:54.011Z,18.2
2017-08-25T02:46:56.462Z,18.2
2017-08-25T02:47:58.929Z,18.2
2017-08-25T02:49:01.379Z,18.2
2017-08-25T02:50:04.182Z,18.2
2017-08-25T02:51:06.637Z,18.2
2017-08-25T02:52:09.438Z,18.2
2017-08-25T02:53:11.878Z,18.2
2017-08-25T02:54:14.694Z,18.2
2017-08-25T02:55:17.152Z,18.2
2017-08-25T02:56:19.608Z,18.2
2017-08-25T02:57:22.398Z,18.2
2017-08-25T02:58:24.859Z,18.2
2017-08-25T02:59:27.312Z,18.2
2017-08-25T03:00:30.103Z,18.2
2017-08-25T03:01:32.560Z,18.2
2017-08-25T03:02:35.060Z,18.2
2017-08-25T03:03:37.507Z,18.2
2017-08-25T03:04:39.959Z,18.2
2017-08-25T03:05:42.430Z,18.2
2017-08-25T03:06:44.887Z,18.2
2017-08-25T03:07:47.349Z,18.2
2017-08-25T03:08:49.800Z,18.2
2017-08-25T03:09:52.258Z,18.2
2017-08-25T03:10:55.057Z,18.2
2017-08-25T03:11:57.497Z,18.2
2017-08-25T03:13:00.322Z,18.2
2017-08-25T03:14:02.780Z,18.2
2017-08-25T03:15:05.236Z,18.2
2017-08-25T03:16:07.685Z,18.2
2017-08-25T03:17:10.517Z,18.2
2017-08-25T03:18:12.965Z,18.2
2017-08-25T03:19:15.430Z,18.2
2017-08-25T03:20:17.930Z,18.2
2017-08-25T03:21:20.373Z,18.2
2017-08-25T03:22:22.883Z,18.2
2017-08-25T03:23:25.330Z,18.2
2017-08-25T03:24:27.792Z,18.2
2017-08-25T03:25:30.270Z,18.2
2017-08-25T03:26:33.067Z,18.2
2017-08-25T03:27:35.520Z,18.2
2017-08-25T03:28:37.967Z,18.2
2017-08-25T03:29:40.786Z,18.2
2017-08-25T03:30:43.249Z,18.2
2017-08-25T03:31:45.695Z,18.2
2017-08-25T03:32:48.197Z,18.2
2017-08-25T03:33:50.651Z,18.2
2017-08-25T03:34:53.146Z,18.2
2017-08-25T03:35:55.601Z,18.2
2017-08-25T03:36:58.057Z,18.2
2017-08-25T03:38:00.564Z,18.2
2017-08-25T03:39:03.015Z,18.2
2017-08-25T03:40:05.812Z,18.2
2017-08-25T03:41:08.951Z,18.2
2017-08-25T03:42:11.404Z,18.2
2017-08-25T03:43:13.858Z,18.2
2017-08-25T03:44:16.316Z,18.2
2017-08-25T03:45:18.786Z,18.2
2017-08-25T03:46:21.592Z,18.2
2017-08-25T03:47:24.085Z,18.2
2017-08-25T03:48:26.531Z,18.2
2017-08-25T03:49:29.021Z,18.2
2017-08-25T03:50:31.476Z,18.2
2017-08-25T03:51:33.924Z,18.2
2017-08-25T03:52:36.430Z,18.2
2017-08-25T03:53:38.878Z,18.2
2017-08-25T03:54:41.380Z,18.2
2017-08-25T03:55:43.833Z,18.1
2017-08-25T03:56:46.285Z,18.2
2017-08-25T03:57:48.774Z,18.1
2017-08-25T03:58:51.233Z,18.1
2017-08-25T03:59:53.690Z,18.1
2017-08-25T04:00:56.137Z,18.1
2017-08-25T04:01:58.954Z,18.1
2017-08-25T04:03:01.408Z,18.1
2017-08-25T04:04:03.860Z,18.1
2017-08-25T04:05:06.365Z,18.1
2017-08-25T04:06:08.817Z,18.1
2017-08-25T04:07:11.328Z,18
2017-08-25T04:08:13.788Z,18
2017-08-25T04:09:16.233Z,18.1
2017-08-25T04:10:19.030Z,18
2017-08-25T04:11:21.493Z,18
2017-08-25T04:12:23.936Z,18
2017-08-25T04:13:26.389Z,18
2017-08-25T04:14:28.841Z,18
2017-08-25T04:15:31.321Z,18
2017-08-25T04:16:33.784Z,17.9
2017-08-25T04:17:36.241Z,18
2017-08-25T04:18:39.025Z,18
2017-08-25T04:19:41.521Z,18
2017-08-25T04:20:43.981Z,17.9
2017-08-25T04:21:46.439Z,18
2017-08-25T04:22:48.924Z,17.9
2017-08-25T04:23:51.379Z,17.9
2017-08-25T04:24:53.833Z,17.9
2017-08-25T04:25:56.620Z,17.9
2017-08-25T04:26:59.094Z,17.9
2017-08-25T04:28:01.915Z,17.9
2017-08-25T04:29:04.364Z,17.9
2017-08-25T04:30:06.863Z,17.9
2017-08-25T04:31:09.659Z,17.9
2017-08-25T04:32:12.510Z,17.9
2017-08-25T04:33:14.977Z,17.9
2017-08-25T04:34:17.473Z,18
2017-08-25T04:35:19.921Z,18
2017-08-25T04:36:22.373Z,17.9
2017-08-25T04:37:24.877Z,18
2017-08-25T04:38:27.671Z,17.9
2017-08-25T04:39:30.125Z,18
2017-08-25T04:40:32.574Z,17.9
2017-08-25T04:41:35.378Z,18
2017-08-25T04:42:37.835Z,18
2017-08-25T04:43:40.295Z,18
2017-08-25T04:44:43.110Z,18
2017-08-25T04:45:45.566Z,18
2017-08-25T04:46:48.020Z,18
2017-08-25T04:47:50.814Z,18
2017-08-25T04:48:53.268Z,18
2017-08-25T04:49:55.709Z,18
2017-08-25T04:50:58.166Z,18
2017-08-25T04:52:00.675Z,18
2017-08-25T04:53:03.136Z,18.1
2017-08-25T04:54:05.639Z,18
2017-08-25T04:55:08.461Z,18
2017-08-25T04:56:10.937Z,18.1
2017-08-25T04:57:13.380Z,18.1
2017-08-25T04:58:15.834Z,18.1
2017-08-25T04:59:18.316Z,18.1
2017-08-25T05:00:20.743Z,18.2
2017-08-25T05:01:23.260Z,18.2
2017-08-25T05:02:25.707Z,18.2
2017-08-25T05:03:28.195Z,18.2
2017-08-25T05:04:30.653Z,18.2
2017-08-25T05:05:33.106Z,18.3
2017-08-25T05:06:35.551Z,18.3
2017-08-25T05:07:38.015Z,18.3
2017-08-25T05:08:40.556Z,18.3
2017-08-25T05:09:43.369Z,18.3
2017-08-25T05:10:46.218Z,18.3
2017-08-25T05:11:48.674Z,18.3
2017-08-25T05:12:51.467Z,18.3
2017-08-25T05:13:53.924Z,18.4
2017-08-25T05:14:56.414Z,18.4
2017-08-25T05:15:58.871Z,18.4
2017-08-25T05:17:01.319Z,18.5
2017-08-25T05:18:03.769Z,18.5
2017-08-25T05:19:06.224Z,18.5
2017-08-25T05:20:08.741Z,18.5
2017-08-25T05:21:11.190Z,18.6
2017-08-25T05:22:13.648Z,18.6
2017-08-25T05:23:16.098Z,18.6
2017-08-25T05:24:18.555Z,18.7
2017-08-25T05:25:21.045Z,18.7
2017-08-25T05:26:23.491Z,18.7
2017-08-25T05:27:25.951Z,18.7
2017-08-25T05:28:28.411Z,18.8
2017-08-25T05:29:30.866Z,18.8
2017-08-25T05:30:33.339Z,18.8
2017-08-25T05:31:35.786Z,18.9
2017-08-25T05:32:38.303Z,18.9
2017-08-25T05:33:40.755Z,18.9
2017-08-25T05:34:43.202Z,19
2017-08-25T05:35:45.656Z,19
2017-08-25T05:36:48.111Z,19
2017-08-25T05:37:50.618Z,19.1
2017-08-25T05:38:53.071Z,19.1
2017-08-25T05:39:55.513Z,19.2
2017-08-25T05:40:57.968Z,19.2
2017-08-25T05:42:00.425Z,19.2
2017-08-25T05:43:02.986Z,19.3
2017-08-25T05:44:05.436Z,19.3
2017-08-25T05:45:07.886Z,19.3
2017-08-25T05:46:10.339Z,19.3
2017-08-25T05:47:12.858Z,19.4
2017-08-25T05:48:15.321Z,19.4
2017-08-25T05:49:17.769Z,19.4
2017-08-25T05:50:20.569Z,19.5
2017-08-25T05:51:23.027Z,19.5
2017-08-25T05:52:25.486Z,19.5
2017-08-25T05:53:27.945Z,19.6
2017-08-25T05:54:30.437Z,19.6
2017-08-25T05:55:32.892Z,19.7
2017-08-25T05:56:35.333Z,19.7
2017-08-25T05:57:38.140Z,19.7
2017-08-25T05:58:40.977Z,19.8
2017-08-25T05:59:43.421Z,19.8
2017-08-25T06:00:45.888Z,19.8
2017-08-25T06:01:48.336Z,19.9
2017-08-25T06:02:50.793Z,19.9
2017-08-25T06:03:53.689Z,19.9
2017-08-25T06:04:56.150Z,19.9
2017-08-25T06:05:58.637Z,20
2017-08-25T06:07:01.097Z,20
2017-08-25T06:08:03.557Z,20
2017-08-25T06:09:06.362Z,20
2017-08-25T06:10:09.203Z,20.1
2017-08-25T06:11:11.651Z,20.1
2017-08-25T06:12:14.189Z,20.1
2017-08-25T06:13:16.656Z,20.1
2017-08-25T06:14:19.099Z,20.2
2017-08-25T06:15:21.557Z,20.2
2017-08-25T06:16:24.014Z,20.3
2017-08-25T06:17:26.489Z,20.3
2017-08-25T06:18:28.949Z,20.3
2017-08-25T06:19:31.403Z,20.4
2017-08-25T06:20:33.847Z,20.4
2017-08-25T06:21:36.738Z,20.5
2017-08-25T06:22:39.197Z,20.5
2017-08-25T06:23:41.652Z,20.6
2017-08-25T06:24:44.099Z,20.6
2017-08-25T06:25:46.556Z,20.6
2017-08-25T06:26:49.707Z,20.6
2017-08-25T06:27:52.189Z,20.7
2017-08-25T06:28:55.044Z,20.8
2017-08-25T06:29:57.493Z,20.8
2017-08-25T06:30:59.950Z,20.9
2017-08-25T06:32:02.412Z,20.9
2017-08-25T06:33:04.950Z,20.9
2017-08-25T06:34:07.412Z,20.9
2017-08-25T06:35:09.870Z,20.9
2017-08-25T06:36:12.321Z,20.9
2017-08-25T06:37:14.781Z,20.9
2017-08-25T06:38:17.580Z,20.9
2017-08-25T06:39:20.030Z,20.9
2017-08-25T06:40:22.584Z,20.9
2017-08-25T06:41:25.037Z,20.9
2017-08-25T06:42:27.491Z,20.9
2017-08-25T06:43:29.953Z,20.9
2017-08-25T06:44:32.400Z,20.9
2017-08-25T06:45:35.267Z,20.9
2017-08-25T06:46:37.735Z,20.9
2017-08-25T06:47:40.184Z,20.9
2017-08-25T06:48:42.647Z,21
2017-08-25T06:49:45.153Z,21
2017-08-25T06:50:47.608Z,21
2017-08-25T06:51:50.426Z,21
2017-08-25T06:52:52.882Z,21
2017-08-25T06:53:55.343Z,21
2017-08-25T06:54:57.797Z,21
2017-08-25T06:56:00.638Z,21
2017-08-25T06:57:03.094Z,21
2017-08-25T06:58:05.550Z,21.1
2017-08-25T06:59:08.000Z,21.1
2017-08-25T07:00:10.454Z,21.1
2017-08-25T07:01:12.956Z,21.1
2017-08-25T07:02:15.411Z,21.1
2017-08-25T07:03:17.869Z,21.1
2017-08-25T07:04:20.322Z,21.1
2017-08-25T07:05:22.782Z,21.1
2017-08-25T07:06:25.584Z,21.1
2017-08-25T07:07:28.381Z,21.2
2017-08-25T07:08:30.883Z,21.1
2017-08-25T07:09:33.339Z,21.1
2017-08-25T07:10:35.907Z,21.2
2017-08-25T07:11:38.372Z,21.2
2017-08-25T07:12:40.830Z,21.2
2017-08-25T07:13:43.281Z,21.2
2017-08-25T07:14:45.897Z,21.3
2017-08-25T07:15:48.778Z,21.3
2017-08-25T07:16:51.369Z,21.4
2017-08-25T07:17:53.914Z,21.4
2017-08-25T07:18:56.548Z,21.4
2017-08-25T07:19:59.006Z,21.4
2017-08-25T07:21:01.465Z,21.4
2017-08-25T07:22:03.923Z,21.4
2017-08-25T07:23:06.386Z,21.4
2017-08-25T07:24:08.837Z,21.5
2017-08-25T07:25:11.293Z,21.5
2017-08-25T07:26:14.098Z,21.6
2017-08-25T07:27:16.561Z,21.6
2017-08-25T07:28:19.011Z,21.7
2017-08-25T07:29:21.450Z,21.7
2017-08-25T07:30:23.870Z,21.8
2017-08-25T07:31:26.278Z,21.8
2017-08-25T07:32:28.716Z,21.8
2017-08-25T07:33:31.146Z,21.8
2017-08-25T07:34:33.606Z,21.8
2017-08-25T07:35:36.063Z,21.8
2017-08-25T07:36:39.293Z,21.8
2017-08-25T07:37:41.885Z,21.8
2017-08-25T07:38:44.348Z,21.9
2017-08-25T07:39:46.796Z,21.9
2017-08-25T07:40:49.248Z,21.9
2017-08-25T07:41:51.710Z,21.9
2017-08-25T07:42:54.174Z,22
2017-08-25T07:43:56.662Z,22
2017-08-25T07:44:59.105Z,22
2017-08-25T07:46:01.563Z,22
2017-08-25T07:47:04.044Z,22
2017-08-25T07:48:06.514Z,22.1
2017-08-25T07:49:08.946Z,22.1
2017-08-25T07:50:11.412Z,22.1
2017-08-25T07:51:13.835Z,22.2
2017-08-25T07:52:16.281Z,22.2
2017-08-25T07:53:18.755Z,22.2
2017-08-25T07:54:21.195Z,22.3
2017-08-25T07:55:23.612Z,22.4
2017-08-25T07:56:26.045Z,22.4
2017-08-25T07:57:28.499Z,22.5
2017-08-25T07:58:31.310Z,22.5
2017-08-25T07:59:33.746Z,22.5
2017-08-25T08:00:36.510Z,22.6
2017-08-25T08:01:39.318Z,22.6
2017-08-25T08:02:42.099Z,22.6
2017-08-25T08:03:44.593Z,22.7
2017-08-25T08:04:47.042Z,22.7
2017-08-25T08:05:49.458Z,22.7
2017-08-25T08:06:51.895Z,22.8
2017-08-25T08:07:54.311Z,22.8
2017-08-25T08:08:56.754Z,22.9
2017-08-25T08:09:59.174Z,22.9
2017-08-25T08:11:01.582Z,23
2017-08-25T08:12:04.049Z,23.1
2017-08-25T08:13:06.511Z,23.2
2017-08-25T08:14:08.963Z,23.3
2017-08-25T08:15:11.413Z,23.3
2017-08-25T08:16:13.833Z,23.4
2017-08-25T08:17:16.249Z,23.5
2017-08-25T08:18:19.078Z,23.6
2017-08-25T08:19:21.529Z,23.7
2017-08-25T08:20:23.976Z,23.7
2017-08-25T08:21:26.443Z,23.7
2017-08-25T08:22:29.278Z,23.8
2017-08-25T08:23:31.721Z,23.9
2017-08-25T08:24:34.135Z,23.9
2017-08-25T08:25:36.570Z,24
2017-08-25T08:26:39.069Z,24
2017-08-25T08:27:41.521Z,24
2017-08-25T08:28:44.309Z,24.1
2017-08-25T08:29:46.753Z,24.1
2017-08-25T08:30:49.165Z,24.2
2017-08-25T08:31:51.603Z,24.2
2017-08-25T08:32:54.013Z,24.2
2017-08-25T08:33:56.447Z,24.2
2017-08-25T08:34:58.885Z,24.3
2017-08-25T08:36:01.329Z,24.3
2017-08-25T08:37:03.731Z,24.4
2017-08-25T08:38:06.137Z,24.5
2017-08-25T08:39:08.555Z,24.6
2017-08-25T08:40:10.993Z,24.7
2017-08-25T08:41:13.484Z,24.7
2017-08-25T08:42:15.899Z,24.7
2017-08-25T08:43:18.319Z,24.7
2017-08-25T08:44:20.732Z,24.7
2017-08-25T08:45:23.155Z,24.7
2017-08-25T08:46:25.576Z,24.7
2017-08-25T08:47:28.016Z,24.8
2017-08-25T08:48:30.459Z,24.8
2017-08-25T08:49:32.886Z,24.9
2017-08-25T08:50:35.297Z,24.9
2017-08-25T08:51:37.702Z,24.9
2017-08-25T08:52:40.158Z,24.9
2017-08-25T08:53:42.904Z,25
2017-08-25T08:54:45.369Z,25.1
2017-08-25T08:55:47.781Z,25.2
2017-08-25T08:56:50.224Z,25.3
2017-08-25T08:57:52.642Z,25.5
2017-08-25T08:58:55.119Z,25.7
2017-08-25T08:59:57.554Z,25.8
2017-08-25T09:00:59.968Z,25.9
2017-08-25T09:02:02.442Z,26
2017-08-25T09:03:04.867Z,26
2017-08-25T09:04:07.342Z,26.1
2017-08-25T09:05:10.462Z,26.1
2017-08-25T09:06:13.095Z,26.1
2017-08-25T09:07:15.567Z,26.1
2017-08-25T09:08:17.975Z,26
2017-08-25T09:09:20.404Z,26
2017-08-25T09:10:22.817Z,25.8
2017-08-25T09:11:25.391Z,25.8
2017-08-25T09:12:27.897Z,25.7
2017-08-25T09:13:30.316Z,25.5
2017-08-25T09:14:33.195Z,25.5
2017-08-25T09:15:35.687Z,25.5
2017-08-25T09:16:38.156Z,25.4
2017-08-25T09:17:40.577Z,25.5
2017-08-25T09:18:42.992Z,25.5
2017-08-25T09:19:45.467Z,25.5
2017-08-25T09:20:47.969Z,25.6
2017-08-25T09:21:50.418Z,25.7
2017-08-25T09:22:52.897Z,25.9
2017-08-25T09:23:55.508Z,26
2017-08-25T09:24:57.922Z,26.1
2017-08-25T09:26:00.401Z,26.3
2017-08-25T09:27:03.165Z,26.5
2017-08-25T09:28:05.999Z,26.6
2017-08-25T09:29:08.412Z,26.8
2017-08-25T09:30:10.839Z,26.9
2017-08-25T09:31:13.253Z,27
2017-08-25T09:32:15.672Z,27.1
2017-08-25T09:33:18.436Z,27.2
2017-08-25T09:34:20.832Z,27.3
2017-08-25T09:35:23.257Z,27.4
2017-08-25T09:36:25.670Z,27.4
2017-08-25T09:37:28.079Z,27.5
2017-08-25T09:38:30.491Z,27.6
2017-08-25T09:39:32.907Z,27.7
2017-08-25T09:40:35.648Z,27.7
2017-08-25T09:41:38.068Z,27.8
2017-08-25T09:42:40.471Z,27.8
2017-08-25T09:43:42.961Z,27.8
2017-08-25T09:44:45.400Z,27.9
2017-08-25T09:45:47.854Z,28
2017-08-25T09:46:50.321Z,28.1
2017-08-25T09:47:52.745Z,28.2
2017-08-25T09:48:55.158Z,28.1
2017-08-25T09:49:57.570Z,28.1
2017-08-25T09:50:59.980Z,28
2017-08-25T09:52:02.403Z,28.1
2017-08-25T09:53:04.822Z,28.2
2017-08-25T09:54:07.233Z,28.3
2017-08-25T09:55:09.642Z,28.4
2017-08-25T09:56:12.050Z,28.5
2017-08-25T09:57:14.479Z,28.6
2017-08-25T09:58:16.905Z,28.8
2017-08-25T09:59:19.398Z,28.9
2017-08-25T10:00:22.229Z,29.1
2017-08-25T10:01:24.638Z,29.2
2017-08-25T10:02:27.115Z,29.3
2017-08-25T10:03:29.550Z,29.4
2017-08-25T10:04:31.965Z,29.5
2017-08-25T10:05:34.384Z,29.7
2017-08-25T10:06:36.806Z,29.7
2017-08-25T10:07:39.312Z,29.8
2017-08-25T10:08:41.724Z,29.9
2017-08-25T10:09:44.150Z,29.9
2017-08-25T10:10:46.570Z,29.9
2017-08-25T10:11:48.994Z,29.9
2017-08-25T10:12:51.412Z,29.8
2017-08-25T10:13:53.825Z,29.7
2017-08-25T10:14:56.242Z,29.7
2017-08-25T10:15:58.660Z,29.8
2017-08-25T10:17:01.076Z,29.9
2017-08-25T10:18:03.495Z,29.8
2017-08-25T10:19:05.904Z,29.7
2017-08-25T10:20:08.405Z,29.6
2017-08-25T10:21:11.155Z,29.5
2017-08-25T10:22:13.575Z,29.5
2017-08-25T10:23:15.996Z,29.5
2017-08-25T10:24:18.488Z,29.6
2017-08-25T10:25:20.899Z,29.7
2017-08-25T10:26:23.318Z,29.8
2017-08-25T10:27:25.736Z,29.9
2017-08-25T10:28:28.254Z,30
2017-08-25T10:29:30.673Z,30
2017-08-25T10:30:33.080Z,30
2017-08-25T10:31:35.496Z,30
2017-08-25T10:32:37.920Z,29.9
2017-08-25T10:33:40.416Z,29.8
2017-08-25T10:34:42.833Z,29.8
2017-08-25T10:35:45.255Z,29.7
2017-08-25T10:36:47.671Z,29.7
2017-08-25T10:37:50.090Z,29.6
2017-08-25T10:38:52.506Z,29.5
2017-08-25T10:39:55.039Z,29.4
2017-08-25T10:40:57.458Z,29.4
2017-08-25T10:41:59.880Z,29.3
2017-08-25T10:43:02.385Z,29.3
2017-08-25T10:44:04.808Z,29.2
2017-08-25T10:45:07.220Z,29
2017-08-25T10:46:09.759Z,28.9
2017-08-25T10:47:12.853Z,28.8
2017-08-25T10:48:15.270Z,28.7
2017-08-25T10:49:17.688Z,28.7
2017-08-25T10:50:20.222Z,28.7
2017-08-25T10:51:22.971Z,28.6
2017-08-25T10:52:25.387Z,28.5
2017-08-25T10:53:27.809Z,28.4
2017-08-25T10:54:30.233Z,28.4
2017-08-25T10:55:33.513Z,28.3
2017-08-25T10:56:35.922Z,28.2
2017-08-25T10:57:38.673Z,28.2
2017-08-25T10:58:41.089Z,28.1
2017-08-25T10:59:43.506Z,28
2017-08-25T11:00:46.142Z,27.9
2017-08-25T11:01:48.551Z,27.7
2017-08-25T11:02:51.327Z,27.6
2017-08-25T11:03:53.738Z,27.4
2017-08-25T11:04:56.355Z,27.3
2017-08-25T11:05:58.769Z,27.2
2017-08-25T11:07:01.184Z,27.1
2017-08-25T11:08:03.763Z,26.9
2017-08-25T11:09:06.515Z,26.8
2017-08-25T11:10:08.932Z,26.7
2017-08-25T11:11:11.345Z,26.6
2017-08-25T11:12:13.757Z,26.6
2017-08-25T11:13:16.173Z,26.5
2017-08-25T11:14:18.581Z,26.5
2017-08-25T11:15:21.000Z,26.5
2017-08-25T11:16:23.417Z,26.4
2017-08-25T11:17:25.822Z,26.4
2017-08-25T11:18:28.448Z,26.3
2017-08-25T11:19:30.861Z,26.3
2017-08-25T11:20:33.288Z,26.2
2017-08-25T11:21:35.866Z,26.1
2017-08-25T11:22:38.273Z,26.1
2017-08-25T11:23:41.024Z,26.1
2017-08-25T11:24:43.438Z,26.1
2017-08-25T11:25:45.849Z,26.2
2017-08-25T11:26:48.263Z,26.2
2017-08-25T11:27:50.670Z,26.3
2017-08-25T11:28:53.083Z,26.4
2017-08-25T11:29:55.507Z,26.4
2017-08-25T11:30:57.919Z,26.6
2017-08-25T11:32:00.838Z,26.8
2017-08-25T11:33:07.203Z,27
2017-08-25T11:34:19.907Z,27.1
2017-08-25T11:35:34.934Z,27.2
2017-08-25T11:36:48.544Z,27.4
2017-08-25T11:38:01.454Z,27.5
2017-08-25T11:39:17.490Z,27.6
2017-08-25T11:40:30.287Z,27.6
2017-08-25T11:41:45.474Z,27.6
2017-08-25T11:42:55.138Z,27.4
2017-08-25T11:44:09.126Z,27.4
2017-08-25T11:45:21.925Z,27.2
2017-08-25T11:46:30.371Z,27.1
2017-08-25T11:47:32.811Z,27
2017-08-25T11:48:35.284Z,27
2017-08-25T11:49:37.689Z,26.9
2017-08-25T11:50:40.473Z,26.8
2017-08-25T11:51:42.925Z,26.8
2017-08-25T11:52:45.330Z,26.7
2017-08-25T11:53:47.744Z,26.7
2017-08-25T11:54:50.165Z,26.7
2017-08-25T11:55:52.911Z,26.7
2017-08-25T11:56:55.329Z,26.7
2017-08-25T11:57:57.743Z,26.8
2017-08-25T11:59:00.466Z,26.9
2017-08-25T12:00:02.898Z,27.1
2017-08-25T12:01:05.846Z,27.3
2017-08-25T12:02:08.274Z,27.4
2017-08-25T12:03:11.050Z,27.7
2017-08-25T12:04:13.503Z,27.9
2017-08-25T12:05:17.141Z,28.1
2017-08-25T12:06:19.568Z,28.2
2017-08-25T12:07:21.987Z,28.4
2017-08-25T12:08:24.406Z,28.5
2017-08-25T12:09:26.836Z,28.6
2017-08-25T12:10:29.250Z,28.7
2017-08-25T12:11:32.195Z,28.8
2017-08-25T12:12:34.837Z,28.9
2017-08-25T12:13:37.254Z,29
2017-08-25T12:14:39.688Z,29.2
2017-08-25T12:15:42.102Z,29.3
2017-08-25T12:16:44.582Z,29.5
2017-08-25T12:17:47.114Z,29.5
2017-08-25T12:18:49.537Z,29.5
2017-08-25T12:19:51.943Z,29.5
2017-08-25T12:20:54.367Z,29.4
2017-08-25T12:21:56.788Z,29.4
2017-08-25T12:22:59.205Z,29.3
2017-08-25T12:24:01.960Z,29.2
2017-08-25T12:25:04.375Z,29.1
2017-08-25T12:26:06.784Z,29
2017-08-25T12:27:09.196Z,29
2017-08-25T12:28:11.890Z,29.1
2017-08-25T12:29:14.319Z,29.2
2017-08-25T12:30:17.491Z,29.2
2017-08-25T12:31:20.266Z,29.4
2017-08-25T12:32:22.682Z,29.5
2017-08-25T12:33:25.099Z,29.6
2017-08-25T12:34:27.521Z,29.7
2017-08-25T12:35:30.057Z,29.8
2017-08-25T12:36:32.473Z,29.9
2017-08-25T12:37:34.892Z,30
2017-08-25T12:38:37.303Z,30.1
2017-08-25T12:39:39.721Z,30.1
2017-08-25T12:40:42.146Z,30.2
2017-08-25T12:41:44.570Z,30.2
2017-08-25T12:42:47.107Z,30.2
2017-08-25T12:43:49.526Z,30.1
2017-08-25T12:44:51.950Z,30.1
2017-08-25T12:45:54.364Z,30
2017-08-25T12:46:56.778Z,30
2017-08-25T12:47:59.189Z,30
2017-08-25T12:49:01.690Z,29.9
2017-08-25T12:50:04.130Z,29.9
2017-08-25T12:51:06.548Z,29.8
2017-08-25T12:52:08.966Z,29.8
2017-08-25T12:53:11.394Z,29.8
2017-08-25T12:54:13.805Z,29.7
2017-08-25T12:55:16.541Z,29.7
2017-08-25T12:56:18.961Z,29.7
2017-08-25T12:57:21.393Z,29.6
2017-08-25T12:58:23.811Z,29.5
2017-08-25T12:59:26.246Z,29.5
2017-08-25T13:00:28.659Z,29.3
2017-08-25T13:01:31.100Z,29.2
2017-08-25T13:02:33.524Z,29.2
2017-08-25T13:03:35.938Z,29.1
2017-08-25T13:04:38.354Z,29
2017-08-25T13:05:41.506Z,29
2017-08-25T13:06:44.265Z,28.9
2017-08-25T13:07:46.989Z,28.8
2017-08-25T13:08:49.407Z,28.7
2017-08-25T13:09:51.831Z,28.6
2017-08-25T13:10:54.587Z,28.5
2017-08-25T13:11:57.009Z,28.5
2017-08-25T13:12:59.426Z,28.5
2017-08-25T13:14:02.057Z,28.5
2017-08-25T13:15:04.470Z,28.5
2017-08-25T13:16:06.881Z,28.6
2017-08-25T13:17:09.300Z,28.7
2017-08-25T13:18:11.742Z,28.8
2017-08-25T13:19:14.530Z,29
2017-08-25T13:20:17.780Z,29.1
2017-08-25T13:21:20.200Z,29.2
2017-08-25T13:22:22.621Z,29.4
2017-08-25T13:23:25.281Z,29.6
2017-08-25T13:24:27.722Z,29.8
2017-08-25T13:25:30.142Z,29.9
2017-08-25T13:26:32.564Z,30
2017-08-25T13:27:34.983Z,30.1
2017-08-25T13:28:37.530Z,30.1
2017-08-25T13:29:39.946Z,30
2017-08-25T13:30:42.714Z,30
2017-08-25T13:31:45.135Z,29.9
2017-08-25T13:32:47.839Z,29.9
2017-08-25T13:33:52.269Z,30
2017-08-25T13:34:54.718Z,30
2017-08-25T13:35:57.135Z,30.2
2017-08-25T13:36:59.575Z,30.2
2017-08-25T13:38:01.989Z,30.3
2017-08-25T13:39:04.414Z,30.4
2017-08-25T13:40:06.852Z,30.5
2017-08-25T13:41:09.618Z,30.6
2017-08-25T13:42:12.409Z,30.8
2017-08-25T13:43:15.707Z,30.9
2017-08-25T13:44:18.124Z,31
2017-08-25T13:45:20.553Z,31.1
2017-08-25T13:46:23.624Z,31.3
2017-08-25T13:47:26.184Z,31.4
2017-08-25T13:48:28.612Z,31.5
2017-08-25T13:49:31.036Z,31.7
2017-08-25T13:50:33.465Z,31.8
2017-08-25T13:51:35.884Z,31.9
2017-08-25T13:52:38.310Z,32
2017-08-25T13:53:40.733Z,32
2017-08-25T13:54:43.244Z,31.9
2017-08-25T13:55:46.023Z,31.9
2017-08-25T13:56:48.435Z,31.8
2017-08-25T13:57:50.846Z,31.6
2017-08-25T13:58:53.265Z,31.5
2017-08-25T13:59:55.687Z,31.4
2017-08-25T14:00:58.107Z,31.4